createdAt,value
2019-04-16T00:02:21.332Z,100001.41
2019-04-16T00:05:06.732Z,99993.14
2019-04-16T00:07:46.127Z,99993.05
2019-04-16T00:10:19.275Z,100004.51
2019-04-16T00:12:55.414Z,100005.72
2019-04-16T00:15:27.014Z,99997.09
2019-04-16T00:17:58.575Z,100000.94
2019-04-16T00:20:31.088Z,100006.02
2019-04-16T00:23:04.644Z,100010.34
2019-04-16T00:25:36.314Z,100004.51
2019-04-16T00:28:07.970Z,100006.97
2019-04-16T00:30:39.549Z,100012.03
2019-04-16T00:33:11.586Z,100015.59
2019-04-16T00:35:46.455Z,100011.76
2019-04-16T00:38:16.718Z,100012.39
2019-04-16T00:40:48.327Z,100014.28
2019-04-16T00:43:19.930Z,100018.80
2019-04-16T00:45:51.564Z,100015.12
2019-04-16T00:48:23.188Z,100002.83
2019-04-16T00:50:56.460Z,99999.45
2019-04-16T00:53:28.163Z,100004.14
2019-04-16T00:55:59.795Z,100002.45
2019-04-16T00:58:31.359Z,100001.50
2019-04-16T01:01:02.961Z,99998.50
2019-04-16T01:03:34.677Z,100005.17
2019-04-16T01:06:07.936Z,100010.53
2019-04-16T01:08:53.590Z,100014.84
2019-04-16T01:11:14.038Z,100023.66
2019-04-16T01:13:46.114Z,100026.02
2019-04-16T01:16:17.725Z,100028.72
2019-04-16T01:18:49.403Z,100034.54
2019-04-16T01:21:21.008Z,100039.42
2019-04-16T01:23:52.619Z,100037.83
2019-04-16T01:26:26.758Z,100039.62
2019-04-16T01:29:07.855Z,100041.20
2019-04-16T01:31:43.363Z,100037.63
2019-04-16T01:34:35.615Z,100037.63
2019-04-16T01:37:08.746Z,100039.97
2019-04-16T01:39:42.027Z,100043.91
2019-04-16T01:42:15.054Z,100042.33
2019-04-16T01:44:46.669Z,100039.12
2019-04-16T01:47:18.289Z,100043.17
2019-04-16T01:49:49.914Z,100038.61
2019-04-16T01:52:21.486Z,100050.30
2019-04-16T01:54:54.865Z,100043.64
2019-04-16T01:57:28.400Z,100051.42
2019-04-16T01:59:59.522Z,100059.88
2019-04-16T02:02:31.178Z,100060.47
2019-04-16T02:05:02.796Z,100064.50
2019-04-16T02:07:34.431Z,100062.82
2019-04-16T02:10:08.069Z,100063.38
2019-04-16T02:12:43.436Z,100072.20
2019-04-16T02:15:13.238Z,100077.15
2019-04-16T02:17:44.872Z,100076.87
2019-04-16T02:20:16.438Z,100079.49
2019-04-16T02:22:48.066Z,100073.19
2019-04-16T02:25:21.125Z,100075.91
2019-04-16T02:27:54.232Z,100072.62
2019-04-16T02:30:26.058Z,100076.44
2019-04-16T02:32:57.675Z,100081.88
2019-04-16T02:35:33.830Z,100080.19
2019-04-16T02:38:11.092Z,100086.53
2019-04-16T02:40:38.854Z,100089.35
2019-04-16T02:43:10.408Z,100088.03
2019-04-16T02:45:42.033Z,100094.75
2019-04-16T02:48:16.651Z,100091.56
2019-04-16T02:50:48.597Z,100098.13
2019-04-16T02:53:36.929Z,100097.44
2019-04-16T02:56:28.447Z,100099.41
2019-04-16T02:59:10.026Z,100100.48
2019-04-16T03:01:55.468Z,100102.27
2019-04-16T03:04:31.777Z,100101.42
2019-04-16T03:07:04.520Z,100108.36
2019-04-16T03:09:40.211Z,100113.97
2019-04-16T03:12:10.690Z,100103.10
2019-04-16T03:14:42.913Z,100110.88
2019-04-16T03:17:32.192Z,100121.06
2019-04-16T03:20:06.787Z,100119.38
2019-04-16T03:22:38.458Z,100120.95
2019-04-16T03:25:13.839Z,100116.94
2019-04-16T03:27:44.564Z,100129.20
2019-04-16T03:30:16.364Z,100123.67
2019-04-16T03:32:49.532Z,100130.14
2019-04-16T03:35:25.231Z,100132.50
2019-04-16T03:37:54.525Z,100142.06
2019-04-16T03:40:26.148Z,100143.37
2019-04-16T03:42:59.473Z,100143.92
2019-04-16T03:45:31.009Z,100151.70
2019-04-16T03:48:04.163Z,100155.36
2019-04-16T03:50:35.782Z,100167.16
2019-04-16T03:53:07.481Z,100171.10
2019-04-16T03:55:39.051Z,100175.59
2019-04-16T03:58:10.661Z,100168.66
2019-04-16T04:00:44.197Z,100178.69
2019-04-16T04:03:15.862Z,100179.35
2019-04-16T04:05:49.012Z,100181.05
2019-04-16T04:08:20.633Z,100184.69
2019-04-16T04:10:52.167Z,100186.37
2019-04-16T04:13:23.774Z,100187.69
2019-04-16T04:15:58.633Z,100193.41
2019-04-16T04:18:29.295Z,100194.34
2019-04-16T04:21:00.865Z,100198.19
2019-04-16T04:23:32.465Z,100198.28
2019-04-16T04:26:05.521Z,100194.54
2019-04-16T04:28:38.379Z,100205.03
2019-04-16T04:31:10.962Z,100211.13
2019-04-16T04:33:43.903Z,100212.53
2019-04-16T04:36:18.749Z,100213.31
2019-04-16T04:38:48.771Z,100217.64
2019-04-16T04:41:23.032Z,100218.95
2019-04-16T04:43:53.660Z,100223.64
2019-04-16T04:46:25.795Z,100223.02
2019-04-16T04:49:00.224Z,100222.83
2019-04-16T04:51:30.756Z,100223.58
2019-04-16T04:54:02.336Z,100226.20
2019-04-16T04:56:33.963Z,100222.09
2019-04-16T04:59:06.077Z,100219.73
2019-04-16T05:01:42.077Z,100225.45
2019-04-16T05:04:21.175Z,100227.89
2019-04-16T05:07:04.558Z,100223.41
2019-04-16T05:09:36.406Z,100221.19
2019-04-16T05:12:09.735Z,100225.12
2019-04-16T05:14:57.222Z,100226.82
2019-04-16T05:17:29.539Z,100229.36
2019-04-16T05:20:02.152Z,100229.27
2019-04-16T05:22:33.760Z,100230.02
2019-04-16T05:25:08.289Z,100227.02
2019-04-16T05:27:41.048Z,100229.27
2019-04-16T05:30:13.752Z,100233.95
2019-04-16T05:32:45.467Z,100233.44
2019-04-16T05:35:20.203Z,100237.95
2019-04-16T05:37:52.300Z,100240.86
2019-04-16T05:40:24.020Z,100242.12
2019-04-16T05:42:55.861Z,100240.86
2019-04-16T05:45:34.520Z,100237.72
2019-04-16T05:48:09.056Z,100242.88
2019-04-16T05:50:43.714Z,100239.78
2019-04-16T05:53:19.248Z,100245.70
2019-04-16T05:56:07.347Z,100239.52
2019-04-16T05:58:38.957Z,100244.39
2019-04-16T06:01:13.703Z,100243.13
2019-04-16T06:03:45.532Z,100246.08
2019-04-16T06:06:17.120Z,100242.33
2019-04-16T06:08:48.795Z,100247.34
2019-04-16T06:11:29.237Z,100248.20
2019-04-16T06:14:03.721Z,100248.61
2019-04-16T06:16:56.934Z,100251.62
2019-04-16T06:19:31.819Z,100248.52
2019-04-16T06:22:09.733Z,100251.91
2019-04-16T06:24:42.934Z,100249.19
2019-04-16T06:27:35.366Z,100247.07
2019-04-16T06:30:17.615Z,100251.74
2019-04-16T06:32:50.812Z,100244.44
2019-04-16T06:35:43.518Z,100253.07
2019-04-16T06:38:22.567Z,100261.23
2019-04-16T06:41:03.074Z,100263.34
2019-04-16T06:43:37.723Z,100262.21
2019-04-16T06:46:27.607Z,100264.49
2019-04-16T06:49:06.774Z,100264.70
2019-04-16T06:51:56.001Z,100261.08
2019-04-16T06:54:45.703Z,100263.70
2019-04-16T06:57:35.535Z,100271.12
2019-04-16T07:00:17.688Z,100275.00
2019-04-16T07:03:02.110Z,100264.68
2019-04-16T07:05:37.891Z,100266.20
2019-04-16T07:08:17.898Z,100269.03
2019-04-16T07:11:03.923Z,100274.49
2019-04-16T07:13:35.423Z,100269.05
2019-04-16T07:16:07.051Z,100277.13
2019-04-16T07:18:39.308Z,100273.64
2019-04-16T07:34:52.408Z,100273.58
2019-04-16T07:37:41.808Z,100273.95
2019-04-16T07:40:14.932Z,100279.30
2019-04-16T07:43:06.661Z,100277.14
2019-04-16T07:45:49.922Z,100281.86
2019-04-16T07:48:33.035Z,100283.06
2019-04-16T07:51:16.501Z,100282.80
2019-04-16T07:53:49.680Z,100285.23
2019-04-16T07:56:33.224Z,100279.02
2019-04-16T07:59:04.913Z,100290.41
2019-04-16T08:01:37.766Z,100291.92
2019-04-16T08:04:09.419Z,100290.12
2019-04-16T08:06:46.319Z,100287.87
2019-04-16T08:09:14.756Z,100284.77
2019-04-16T08:11:46.515Z,100284.29
2019-04-16T08:14:19.652Z,100284.46
2019-04-16T08:16:53.087Z,100284.02
2019-04-16T08:19:35.994Z,100278.18
2019-04-16T08:21:58.293Z,100270.45
2019-04-16T08:24:37.270Z,100269.02
2019-04-16T08:27:17.813Z,100262.95
2019-04-16T08:29:45.469Z,100263.37
2019-04-16T08:32:18.575Z,100271.54
2019-04-16T08:34:50.232Z,100270.22
2019-04-16T08:37:21.795Z,100273.06
2019-04-16T08:39:54.798Z,100272.70
2019-04-16T08:42:29.318Z,100267.53
2019-04-16T08:44:59.642Z,100264.20
2019-04-16T08:47:33.675Z,100270.86
2019-04-16T08:50:07.590Z,100266.00
2019-04-16T08:52:41.695Z,100264.89
2019-04-16T08:55:13.663Z,100273.55
2019-04-16T08:57:46.958Z,100271.80
2019-04-16T09:00:18.583Z,100273.59
2019-04-16T09:02:50.155Z,100276.86
2019-04-16T09:05:21.767Z,100289.38
2019-04-16T09:07:53.354Z,100291.05
2019-04-16T09:10:29.973Z,100299.52
2019-04-16T09:13:04.095Z,100304.69
2019-04-16T09:15:35.461Z,100299.89
2019-04-16T09:18:24.910Z,100297.45
2019-04-16T09:20:57.110Z,100308.00
2019-04-16T09:23:31.248Z,100312.59
2019-04-16T09:26:13.534Z,100314.08
2019-04-16T09:28:39.250Z,100314.20
2019-04-16T09:31:18.827Z,100300.47
2019-04-16T09:33:57.349Z,100298.95
2019-04-16T09:36:39.341Z,100298.30
2019-04-16T09:39:27.768Z,100297.59
2019-04-16T09:42:02.062Z,100293.91
2019-04-16T09:44:37.937Z,100293.34
2019-04-16T09:47:09.486Z,100300.48
2019-04-16T09:49:42.598Z,100305.01
2019-04-16T09:52:19.691Z,100306.33
2019-04-16T09:54:54.969Z,100299.33
2019-04-16T09:57:30.901Z,100306.84
2019-04-16T10:00:02.545Z,100316.52
2019-04-16T10:02:34.651Z,100312.31
2019-04-16T10:05:06.888Z,100321.38
2019-04-16T10:07:42.424Z,100321.65
2019-04-16T10:10:13.970Z,100327.41
2019-04-16T10:12:47.772Z,100322.34
2019-04-16T10:15:19.280Z,100324.98
2019-04-16T10:17:52.233Z,100324.24
2019-04-16T10:20:23.755Z,100324.99
2019-04-16T10:22:55.181Z,100324.05
2019-04-16T10:25:27.858Z,100325.37
2019-04-16T10:28:01.873Z,100319.30
2019-04-16T10:30:38.440Z,100324.74
2019-04-16T10:33:11.026Z,100329.51
2019-04-16T10:35:42.533Z,100328.97
2019-04-16T10:38:21.990Z,100338.66
2019-04-16T10:40:55.770Z,100343.55
2019-04-16T10:43:43.927Z,100344.66
2019-04-16T10:46:09.878Z,100352.39
2019-04-16T10:48:54.823Z,100346.55
2019-04-16T10:51:29.006Z,100348.81
2019-04-16T10:54:14.020Z,100344.67
2019-04-16T10:56:56.706Z,100343.36
2019-04-16T10:59:47.554Z,100337.91
2019-04-16T11:02:32.614Z,100331.31
2019-04-16T11:05:06.735Z,100332.52
2019-04-16T11:07:40.786Z,100339.95
2019-04-16T11:10:14.065Z,100340.09
2019-04-16T11:12:45.550Z,100340.45
2019-04-16T11:15:18.570Z,100344.51
2019-04-16T11:17:54.082Z,100340.30
2019-04-16T11:20:26.626Z,100339.28
2019-04-16T11:22:59.777Z,100340.53
2019-04-16T11:25:31.326Z,100344.96
2019-04-16T11:28:04.138Z,100343.81
2019-04-16T11:30:44.201Z,100342.60
2019-04-16T11:33:15.853Z,100345.08
2019-04-16T11:35:52.582Z,100346.36
2019-04-16T11:38:20.726Z,100354.17
2019-04-16T11:40:52.346Z,100357.58
2019-04-16T11:43:25.209Z,100364.91
2019-04-16T11:45:56.826Z,100362.94
2019-04-16T11:48:28.402Z,100368.95
2019-04-16T11:51:02.444Z,100365.27
2019-04-16T11:53:35.490Z,100372.31
2019-04-16T11:56:07.068Z,100371.77
2019-04-16T11:58:41.498Z,100369.51
2019-04-16T12:01:23.384Z,100371.77
2019-04-16T12:03:56.744Z,100370.45
2019-04-16T12:06:46.089Z,100370.73
2019-04-16T12:09:21.951Z,100367.62
2019-04-16T12:12:10.015Z,100373.09
2019-04-16T12:14:43.674Z,100370.47
2019-04-16T12:17:19.791Z,100369.31
2019-04-16T12:19:56.105Z,100369.42
2019-04-16T12:22:30.201Z,100369.91
2019-04-16T12:25:12.796Z,100357.65
2019-04-16T12:27:58.077Z,100358.22
2019-04-16T12:30:47.622Z,100361.63
2019-04-16T12:33:23.804Z,100354.94
2019-04-16T12:35:57.012Z,100362.58
2019-04-16T12:38:33.146Z,100356.93
2019-04-16T12:41:22.483Z,100361.42
2019-04-16T12:44:10.966Z,100360.52
2019-04-16T12:46:48.547Z,100365.78
2019-04-16T12:49:37.881Z,100358.05
2019-04-16T12:52:31.942Z,100351.66
2019-04-16T12:55:10.193Z,100360.30
2019-04-16T12:57:58.774Z,100358.56
2019-04-16T13:00:48.698Z,100359.03
2019-04-16T13:03:28.033Z,100366.56
2019-04-16T13:06:04.450Z,100371.16
2019-04-16T13:08:37.708Z,100375.16
2019-04-16T13:11:35.204Z,100372.91
2019-04-16T13:14:08.352Z,100369.23
2019-04-16T13:16:47.690Z,100376.13
2019-04-16T13:19:38.183Z,100383.66
2019-04-16T13:22:12.747Z,100382.87
2019-04-16T13:24:58.230Z,100384.94
2019-04-16T13:27:37.151Z,100381.92
2019-04-16T13:30:10.485Z,100382.50
2019-04-16T13:32:42.157Z,100383.52
2019-04-16T13:35:13.795Z,100392.10
2019-04-16T13:37:45.471Z,100384.97
2019-04-16T13:40:18.956Z,100387.20
2019-04-16T13:42:51.322Z,100392.67
2019-04-16T13:45:28.606Z,100384.36
2019-04-16T13:48:14.519Z,100386.93
2019-04-16T13:50:40.499Z,100382.98
2019-04-16T13:53:29.064Z,100386.19
2019-04-16T13:56:19.695Z,100385.69
2019-04-16T13:59:00.585Z,100392.94
2019-04-16T14:01:45.976Z,100393.98
2019-04-16T14:04:16.659Z,100392.77
2019-04-16T16:39:07.154Z,100479.79
2019-04-16T16:41:40.563Z,100474.15
2019-04-16T16:44:12.610Z,100476.03
2019-04-16T16:47:05.795Z,100482.61
2019-04-16T16:49:39.638Z,100486.23
2019-04-16T16:52:14.283Z,100492.91
2019-04-16T16:54:48.171Z,100497.80
2019-04-16T16:57:23.046Z,100497.05
2019-04-16T16:59:59.475Z,100497.19
2019-04-16T17:02:41.505Z,100505.79
2019-04-16T17:05:15.553Z,100503.11
2019-04-16T17:07:56.388Z,100512.59
2019-04-16T17:10:29.055Z,100507.56
2019-04-16T17:13:02.620Z,100518.73
2019-04-16T17:15:36.830Z,100519.35
2019-04-16T17:18:10.442Z,100519.06
2019-04-16T17:20:43.822Z,100522.63
2019-04-16T17:23:17.373Z,100529.81
2019-04-16T17:25:50.894Z,100533.38
2019-04-16T17:28:25.995Z,100525.11
2019-04-16T17:30:58.212Z,100531.22
2019-04-16T17:33:31.510Z,100531.40
2019-04-16T17:36:40.121Z,100533.33
2019-04-16T17:39:14.231Z,100536.13
2019-04-16T17:42:13.575Z,100532.74
2019-04-16T17:44:49.920Z,100534.75
2019-04-16T17:47:33.040Z,100540.56
2019-04-16T17:50:13.333Z,100543.34
2019-04-16T17:53:06.222Z,100546.52
2019-04-16T17:55:55.154Z,100549.32
2019-04-16T17:58:37.506Z,100555.13
2019-04-16T18:01:11.507Z,100559.97
2019-04-16T18:03:50.376Z,100559.97
2019-04-16T18:06:31.676Z,100558.66
2019-04-16T18:09:10.156Z,100554.72
2019-04-16T18:11:51.219Z,100564.47
2019-04-16T18:14:55.917Z,100563.23
2019-04-16T18:17:46.789Z,100560.14
2019-04-16T18:20:39.935Z,100558.66
2019-04-16T18:23:35.463Z,100564.73
2019-04-16T18:26:43.203Z,100570.03
2019-04-16T18:29:21.010Z,100562.70
2019-04-16T18:32:01.610Z,100565.59
2019-04-16T18:34:50.936Z,100565.12
2019-04-16T18:37:34.848Z,100560.47
2019-04-16T18:40:16.147Z,100552.74
2019-04-16T18:43:01.905Z,100551.58
2019-04-16T18:46:08.615Z,100548.73
2019-04-16T18:48:44.920Z,100548.55
2019-04-16T18:51:33.025Z,100551.64
2019-04-16T18:54:09.337Z,100544.09
2019-04-16T18:56:44.125Z,100549.73
2019-04-16T18:59:21.891Z,100544.23
2019-04-16T19:02:19.527Z,100547.14
2019-04-16T19:05:07.869Z,100545.16
2019-04-16T19:07:51.241Z,100546.20
2019-04-16T19:11:01.590Z,100546.73
2019-04-16T19:13:44.900Z,100539.77
2019-04-16T19:16:29.710Z,100547.33
2019-04-16T19:19:27.339Z,100542.13
2019-04-16T19:22:29.878Z,100545.94
2019-04-16T19:25:23.536Z,100543.80
2019-04-16T19:28:09.758Z,100552.62
2019-04-16T19:30:52.695Z,100550.55
2019-04-16T19:33:38.128Z,100550.48
2019-04-16T19:36:13.144Z,100547.53
2019-04-16T19:38:53.542Z,100547.02
2019-04-16T19:41:31.572Z,100545.08
2019-04-16T19:44:07.251Z,100543.84
2019-04-16T19:46:38.705Z,100542.07
2019-04-16T19:49:10.565Z,100540.45
2019-04-16T19:51:43.243Z,100544.14
2019-04-16T19:54:19.508Z,100542.75
2019-04-16T19:57:03.816Z,100543.69
2019-04-16T19:59:37.197Z,100548.71
2019-04-16T20:02:09.723Z,100550.70
2019-04-16T20:04:44.517Z,100553.02
2019-04-16T20:07:20.941Z,100553.48
2019-04-16T20:09:55.092Z,100550.02
2019-04-16T20:12:28.901Z,100551.25
2019-04-16T20:15:09.348Z,100559.21
2019-04-16T20:17:41.844Z,100558.19
2019-04-16T20:20:18.028Z,100559.97
2019-04-16T20:22:55.678Z,100562.13
2019-04-16T20:25:27.665Z,100559.97
2019-04-16T20:28:02.389Z,100562.21
2019-04-16T20:30:39.958Z,100559.59
2019-04-16T20:33:19.184Z,100557.42
2019-04-16T20:35:58.031Z,100553.57
2019-04-16T20:38:30.157Z,100555.73
2019-04-16T20:41:03.791Z,100552.72
2019-04-16T20:43:37.695Z,100553.66
2019-04-16T20:46:09.629Z,100543.20
2019-04-16T20:48:41.872Z,100549.00
2019-04-16T20:51:16.170Z,100552.47
2019-04-16T20:53:47.843Z,100550.94
2019-04-16T20:56:20.463Z,100542.26
2019-04-16T20:58:55.011Z,100542.80
2019-04-16T21:01:35.189Z,100547.28
2019-04-16T21:04:05.301Z,100541.49
2019-04-16T21:06:40.659Z,100539.80
2019-04-16T21:09:08.640Z,100540.73
2019-04-16T21:11:41.976Z,100535.09
2019-04-16T21:14:15.073Z,100533.02
2019-04-16T21:16:52.309Z,100533.53
2019-04-16T21:19:27.667Z,100539.63
2019-04-16T21:22:01.374Z,100536.07
2019-04-16T21:24:33.519Z,100529.84
2019-04-16T21:27:09.881Z,100540.05
2019-04-16T21:29:40.595Z,100540.05
2019-04-16T21:32:25.141Z,100542.52
2019-04-16T21:35:06.696Z,100541.97
2019-04-16T21:37:44.196Z,100539.89
2019-04-16T21:40:16.484Z,100537.56
2019-04-16T21:42:48.208Z,100533.25
2019-04-16T21:45:21.971Z,100530.54
2019-04-16T21:47:55.105Z,100531.56
2019-04-16T21:50:27.149Z,100532.95
2019-04-16T21:52:59.325Z,100530.08
2019-04-16T21:55:35.476Z,100529.23
2019-04-16T21:58:07.314Z,100533.51
2019-04-16T22:00:40.752Z,100534.82
2019-04-16T22:03:34.035Z,100539.27
2019-04-16T22:06:07.772Z,100529.70
2019-04-16T22:08:40.385Z,100531.02
2019-04-16T22:11:12.679Z,100531.02
2019-04-16T22:13:44.498Z,100527.46
2019-04-16T22:16:17.648Z,100521.70
2019-04-16T22:18:50.347Z,100525.63
2019-04-16T22:21:27.401Z,100526.48
2019-04-16T22:24:00.698Z,100530.47
2019-04-16T22:26:35.614Z,100530.47
2019-04-16T22:29:08.174Z,100529.48
2019-04-16T22:31:41.469Z,100527.80
2019-04-16T22:34:16.624Z,100519.53
2019-04-16T22:36:48.096Z,100522.16
2019-04-16T22:39:30.661Z,100521.14
2019-04-16T22:42:10.921Z,100517.28
2019-04-16T22:44:48.461Z,100508.83
2019-04-16T22:47:30.792Z,100507.61
2019-04-16T22:50:14.728Z,100506.39
2019-04-16T22:52:35.638Z,100507.63
2019-04-16T22:55:07.320Z,100498.67
2019-04-16T22:57:38.982Z,100504.30
2019-04-16T23:00:13.083Z,100502.28
2019-04-16T23:02:48.245Z,100504.30
2019-04-16T23:05:20.403Z,100503.75
2019-04-16T23:07:52.304Z,100505.16
2019-04-16T23:10:23.998Z,100495.42
2019-04-16T23:12:59.520Z,100494.47
2019-04-16T23:15:30.565Z,100492.75
2019-04-16T23:18:02.991Z,100486.38
2019-04-16T23:20:36.978Z,100490.65
2019-04-16T23:23:09.953Z,100496.05
2019-04-16T23:25:41.810Z,100499.52
2019-04-16T23:28:13.503Z,100501.87
2019-04-16T23:30:47.957Z,100503.11
2019-04-16T23:33:20.502Z,100501.66
2019-04-16T23:35:52.257Z,100495.55
2019-04-16T23:38:23.934Z,100498.47
2019-04-16T23:40:55.614Z,100498.32
2019-04-16T23:43:47.311Z,100498.56
2019-04-16T23:46:29.716Z,100496.14
2019-04-16T23:49:05.733Z,100496.34
2019-04-16T23:51:44.754Z,100495.50
2019-04-16T23:54:18.009Z,100495.55
2019-04-16T23:56:53.949Z,100494.39
2019-04-16T23:59:27.386Z,100489.86
